Clinton, OK

4:52 AM CST on November 22, 2014 (GMT -0600)
Clinton-Sherman | Change Station
CLOSE
Current Station
Airport
Location: Clinton-Sherman,
Elevation: 1923 ft
Nearby Weather Stations
Active Advisory: Dense Fog Advisory

Elev 1923 ft 35.34 °N, 99.20 °W | Updated 59 minutes ago

Overcast
Overcast
49 °F
Feels Like 49 °F
N
0
Wind Variable Wind from North

Today
High -- | Low -- °F
--% Chance of Precip.
Yesterday
High -- | Low -- °F
Precip. -- in
7:18 AM 5:25 PM
Waning Crescent, 0% visible
Pressure 29.99 in
Visibility 0.2 miles
Clouds
Dew Point 47 °F
Humidity 93%
Rainfall 0.00 in
Snow Depth Not available.
UV Not available.
Pollen 2.90 out of 12
Air Quality Not available.
Flu Activity Not available.
METAR KCSM 220953Z AUTO 00000KT M1/4SM FG VV002 09/08 A3000 RMK AO2 SLP155 T00940083

More Conditions Fewer Conditions

Pressure 29.99 in
Visibility 0.2 miles
Clouds
Dew Point 47 °F
Humidity 93%
Rainfall 0.00 in
Snow Depth Not available.
UV Not available.
Pollen 2.90 out of 12
Air Quality Not available.
Flu Activity Not available.
METAR KCSM 220953Z AUTO 00000KT M1/4SM FG VV002 09/08 A3000 RMK AO2 SLP155 T00940083

More Conditions Fewer Conditions

10-Day Weather Forecast

Almanac

Astronomy

Nov. 22, 2014 Rise Set
Actual Time
Civil Twilight
Nautical Twilight
Astronomical Twilight
Moon
Length of Visible Light
Length of Day
Tomorrow will be .
, % of the Moon is Illuminated

Today's Extremes

State Highs State Lows

Community

WunderPhotos

Upload Photos

1,772,805 photos uploaded!

WunderBlogs® & News

Nearby

Air Quality

  Air Quality AQ Index Pollutant
Not available.

Snow Depth

Station Depth Elevation

Earthquake Activity

City Distance Mag. Time & Date
Minimum magnitude displayed is 2.5.

Coastal Water Temperatures

Place Temperature

Nearby Weather Stations